Lower Nutria, New Mexico
Current Conditions -  °F | °C
As of 9:53 AM on Sunday 21 Dec 2014 (Local Time) from KGUP Reporting Station
Clear Clear  
Wind Chill: 35°   Ceiling: Unl
Heat Index: 35°   Visibility: 10mi
Dew Point: 28°   Wind: 3mph
Humidity: 76%   Direction: NA
Pressure: 30.1"   Gusts: NA
Location:  35.0898°N, 108.763°W
Report Text: KGUP 211653Z AUTO VRB03KT 10SM CLR 02/M02 A3010 RMK AO2 SLP200 T00171022
Loading
Personal Weather Stations






























Interactive Weather Map New forecast layout! Learn more

10-Day Weather Forecast

Advertisements
Track Severe Weather on mobile